sensor_id;sensor_type;location;lat;lon;timestamp;P1;durP1;ratioP1;P2;durP2;ratioP2
11092;SDS011;5600;50.864;6.102;2022-07-21T00:02:57;75.88;;;6.95;;
11092;SDS011;5600;50.864;6.102;2022-07-21T00:05:58;60.33;;;6.35;;
11092;SDS011;5600;50.864;6.102;2022-07-21T00:08:59;47.13;;;6.13;;
11092;SDS011;5600;50.864;6.102;2022-07-21T00:12:01;85.70;;;7.68;;
11092;SDS011;5600;50.864;6.102;2022-07-21T00:15:03;39.97;;;6.00;;
11092;SDS011;5600;50.864;6.102;2022-07-21T00:18:04;47.72;;;6.55;;
11092;SDS011;5600;50.864;6.102;2022-07-21T00:21:05;49.50;;;6.20;;
11092;SDS011;5600;50.864;6.102;2022-07-21T00:24:07;58.55;;;6.50;;
11092;SDS011;5600;50.864;6.102;2022-07-21T00:27:07;60.38;;;7.18;;
11092;SDS011;5600;50.864;6.102;2022-07-21T00:30:09;60.45;;;7.13;;
11092;SDS011;5600;50.864;6.102;2022-07-21T00:33:11;50.00;;;7.68;;
11092;SDS011;5600;50.864;6.102;2022-07-21T00:36:12;66.38;;;7.68;;
11092;SDS011;5600;50.864;6.102;2022-07-21T00:39:13;47.42;;;7.45;;
11092;SDS011;5600;50.864;6.102;2022-07-21T00:42:24;54.90;;;7.65;;
11092;SDS011;5600;50.864;6.102;2022-07-21T00:45:25;48.33;;;6.85;;
11092;SDS011;5600;50.864;6.102;2022-07-21T00:48:26;29.00;;;7.28;;
11092;SDS011;5600;50.864;6.102;2022-07-21T00:51:26;35.83;;;6.75;;
11092;SDS011;5600;50.864;6.102;2022-07-21T00:54:27;56.38;;;7.78;;
11092;SDS011;5600;50.864;6.102;2022-07-21T00:57:28;35.83;;;6.97;;
11092;SDS011;5600;50.864;6.102;2022-07-21T01:00:29;54.72;;;7.75;;
11092;SDS011;5600;50.864;6.102;2022-07-21T01:03:31;52.65;;;7.68;;
11092;SDS011;5600;50.864;6.102;2022-07-21T01:06:31;43.20;;;7.80;;
11092;SDS011;5600;50.864;6.102;2022-07-21T01:09:33;57.50;;;7.93;;
11092;SDS011;5600;50.864;6.102;2022-07-21T01:12:34;49.40;;;7.78;;
11092;SDS011;5600;50.864;6.102;2022-07-21T01:15:35;53.95;;;7.88;;
11092;SDS011;5600;50.864;6.102;2022-07-21T01:18:36;49.22;;;7.80;;
11092;SDS011;5600;50.864;6.102;2022-07-21T01:21:38;59.63;;;8.45;;
11092;SDS011;5600;50.864;6.102;2022-07-21T01:24:39;49.28;;;7.63;;
11092;SDS011;5600;50.864;6.102;2022-07-21T01:27:40;50.25;;;8.43;;
11092;SDS011;5600;50.864;6.102;2022-07-21T01:30:41;62.63;;;8.18;;
11092;SDS011;5600;50.864;6.102;2022-07-21T01:33:42;36.78;;;7.35;;
11092;SDS011;5600;50.864;6.102;2022-07-21T01:36:44;50.95;;;8.35;;
11092;SDS011;5600;50.864;6.102;2022-07-21T01:39:46;23.55;;;7.07;;
11092;SDS011;5600;50.864;6.102;2022-07-21T01:43:06;51.63;;;7.95;;
11092;SDS011;5600;50.864;6.102;2022-07-21T01:46:09;34.38;;;6.95;;
11092;SDS011;5600;50.864;6.102;2022-07-21T01:49:11;44.17;;;7.50;;
11092;SDS011;5600;50.864;6.102;2022-07-21T01:52:12;67.60;;;8.52;;
11092;SDS011;5600;50.864;6.102;2022-07-21T01:55:13;62.30;;;8.93;;
11092;SDS011;5600;50.864;6.102;2022-07-21T01:58:14;46.50;;;7.47;;
11092;SDS011;5600;50.864;6.102;2022-07-21T02:01:18;47.20;;;8.32;;
11092;SDS011;5600;50.864;6.102;2022-07-21T02:04:19;45.58;;;7.97;;
11092;SDS011;5600;50.864;6.102;2022-07-21T02:07:21;60.85;;;8.60;;
11092;SDS011;5600;50.864;6.102;2022-07-21T02:10:22;57.60;;;8.30;;
11092;SDS011;5600;50.864;6.102;2022-07-21T02:13:23;67.35;;;8.35;;
11092;SDS011;5600;50.864;6.102;2022-07-21T02:16:24;51.90;;;8.32;;
11092;SDS011;5600;50.864;6.102;2022-07-21T02:19:25;61.58;;;9.13;;
11092;SDS011;5600;50.864;6.102;2022-07-21T02:22:25;64.22;;;9.35;;
11092;SDS011;5600;50.864;6.102;2022-07-21T02:25:26;60.60;;;9.32;;
11092;SDS011;5600;50.864;6.102;2022-07-21T02:28:27;71.18;;;9.63;;
11092;SDS011;5600;50.864;6.102;2022-07-21T02:31:28;34.40;;;7.75;;
11092;SDS011;5600;50.864;6.102;2022-07-21T02:34:29;8.38;;;7.38;;
11092;SDS011;5600;50.864;6.102;2022-07-21T02:37:30;36.53;;;7.60;;
11092;SDS011;5600;50.864;6.102;2022-07-21T02:40:31;30.05;;;8.57;;
11092;SDS011;5600;50.864;6.102;2022-07-21T02:43:32;62.63;;;9.70;;
11092;SDS011;5600;50.864;6.102;2022-07-21T02:46:33;35.25;;;7.90;;
11092;SDS011;5600;50.864;6.102;2022-07-21T02:49:34;50.13;;;8.70;;
11092;SDS011;5600;50.864;6.102;2022-07-21T02:52:35;57.38;;;9.63;;
11092;SDS011;5600;50.864;6.102;2022-07-21T02:55:36;55.08;;;9.32;;
11092;SDS011;5600;50.864;6.102;2022-07-21T02:58:38;87.78;;;9.68;;
11092;SDS011;5600;50.864;6.102;2022-07-21T03:01:39;61.78;;;10.60;;
11092;SDS011;5600;50.864;6.102;2022-07-21T03:04:40;64.60;;;10.98;;
11092;SDS011;5600;50.864;6.102;2022-07-21T03:07:41;53.33;;;9.50;;
11092;SDS011;5600;50.864;6.102;2022-07-21T03:10:42;41.20;;;9.45;;
11092;SDS011;5600;50.864;6.102;2022-07-21T03:13:43;61.15;;;8.98;;
11092;SDS011;5600;50.864;6.102;2022-07-21T03:16:44;58.15;;;9.88;;
11092;SDS011;5600;50.864;6.102;2022-07-21T03:19:45;50.85;;;9.73;;
11092;SDS011;5600;50.864;6.102;2022-07-21T03:22:46;60.85;;;10.38;;
11092;SDS011;5600;50.864;6.102;2022-07-21T03:25:47;53.65;;;10.30;;
11092;SDS011;5600;50.864;6.102;2022-07-21T03:28:48;78.18;;;11.07;;
11092;SDS011;5600;50.864;6.102;2022-07-21T03:31:48;53.25;;;10.80;;
11092;SDS011;5600;50.864;6.102;2022-07-21T03:34:49;61.70;;;10.48;;
11092;SDS011;5600;50.864;6.102;2022-07-21T03:37:51;59.13;;;10.82;;
11092;SDS011;5600;50.864;6.102;2022-07-21T03:40:52;49.00;;;10.60;;
11092;SDS011;5600;50.864;6.102;2022-07-21T03:43:53;53.60;;;10.95;;
11092;SDS011;5600;50.864;6.102;2022-07-21T03:46:54;55.80;;;11.15;;
11092;SDS011;5600;50.864;6.102;2022-07-21T03:49:56;42.60;;;10.65;;
11092;SDS011;5600;50.864;6.102;2022-07-21T03:52:57;30.92;;;10.43;;
11092;SDS011;5600;50.864;6.102;2022-07-21T03:55:58;46.70;;;11.57;;
11092;SDS011;5600;50.864;6.102;2022-07-21T03:59:01;62.00;;;11.15;;
11092;SDS011;5600;50.864;6.102;2022-07-21T04:02:02;94.97;;;13.13;;
11092;SDS011;5600;50.864;6.102;2022-07-21T04:05:02;67.15;;;12.02;;
11092;SDS011;5600;50.864;6.102;2022-07-21T04:08:04;52.78;;;11.32;;
11092;SDS011;5600;50.864;6.102;2022-07-21T04:11:06;58.90;;;10.52;;
11092;SDS011;5600;50.864;6.102;2022-07-21T04:14:07;47.05;;;11.30;;
11092;SDS011;5600;50.864;6.102;2022-07-21T04:17:08;59.42;;;12.32;;
11092;SDS011;5600;50.864;6.102;2022-07-21T04:20:09;35.45;;;10.63;;
11092;SDS011;5600;50.864;6.102;2022-07-21T04:23:11;66.68;;;11.90;;
11092;SDS011;5600;50.864;6.102;2022-07-21T04:26:12;59.85;;;11.70;;
11092;SDS011;5600;50.864;6.102;2022-07-21T04:29:12;58.33;;;11.40;;
11092;SDS011;5600;50.864;6.102;2022-07-21T04:32:13;71.15;;;12.50;;
11092;SDS011;5600;50.864;6.102;2022-07-21T04:35:15;38.22;;;11.10;;
11092;SDS011;5600;50.864;6.102;2022-07-21T04:38:16;57.13;;;12.02;;
11092;SDS011;5600;50.864;6.102;2022-07-21T04:41:18;66.03;;;12.05;;
11092;SDS011;5600;50.864;6.102;2022-07-21T04:44:19;65.35;;;11.55;;
11092;SDS011;5600;50.864;6.102;2022-07-21T04:47:20;61.30;;;11.68;;
11092;SDS011;5600;50.864;6.102;2022-07-21T04:50:22;69.03;;;11.35;;
11092;SDS011;5600;50.864;6.102;2022-07-21T04:53:24;70.57;;;11.60;;
11092;SDS011;5600;50.864;6.102;2022-07-21T04:56:25;55.83;;;11.30;;
11092;SDS011;5600;50.864;6.102;2022-07-21T04:59:26;53.63;;;10.57;;
11092;SDS011;5600;50.864;6.102;2022-07-21T05:02:26;64.10;;;11.48;;
11092;SDS011;5600;50.864;6.102;2022-07-21T05:05:27;55.72;;;10.02;;
11092;SDS011;5600;50.864;6.102;2022-07-21T05:08:28;62.15;;;11.43;;
11092;SDS011;5600;50.864;6.102;2022-07-21T05:11:29;50.90;;;10.50;;
11092;SDS011;5600;50.864;6.102;2022-07-21T05:14:30;47.25;;;10.68;;
11092;SDS011;5600;50.864;6.102;2022-07-21T05:17:31;36.28;;;9.90;;
11092;SDS011;5600;50.864;6.102;2022-07-21T05:20:31;44.80;;;10.77;;
11092;SDS011;5600;50.864;6.102;2022-07-21T05:23:32;38.50;;;10.02;;
11092;SDS011;5600;50.864;6.102;2022-07-21T05:26:33;35.90;;;9.57;;
11092;SDS011;5600;50.864;6.102;2022-07-21T05:29:35;54.20;;;11.05;;
11092;SDS011;5600;50.864;6.102;2022-07-21T05:32:35;64.35;;;10.05;;
11092;SDS011;5600;50.864;6.102;2022-07-21T05:35:36;61.90;;;10.48;;
11092;SDS011;5600;50.864;6.102;2022-07-21T05:38:38;79.25;;;11.15;;
11092;SDS011;5600;50.864;6.102;2022-07-21T05:41:39;53.50;;;9.57;;
11092;SDS011;5600;50.864;6.102;2022-07-21T05:44:40;73.70;;;10.10;;
11092;SDS011;5600;50.864;6.102;2022-07-21T05:47:41;51.03;;;8.73;;
11092;SDS011;5600;50.864;6.102;2022-07-21T05:50:42;47.33;;;9.27;;
11092;SDS011;5600;50.864;6.102;2022-07-21T05:53:44;49.13;;;9.18;;
11092;SDS011;5600;50.864;6.102;2022-07-21T05:56:44;32.88;;;8.43;;
11092;SDS011;5600;50.864;6.102;2022-07-21T05:59:45;43.92;;;8.27;;
11092;SDS011;5600;50.864;6.102;2022-07-21T06:02:46;58.42;;;8.55;;
11092;SDS011;5600;50.864;6.102;2022-07-21T06:05:47;42.17;;;7.57;;
11092;SDS011;5600;50.864;6.102;2022-07-21T06:08:48;65.88;;;8.00;;
11092;SDS011;5600;50.864;6.102;2022-07-21T06:11:49;111.53;;;10.10;;
11092;SDS011;5600;50.864;6.102;2022-07-21T06:14:50;76.03;;;8.68;;
11092;SDS011;5600;50.864;6.102;2022-07-21T06:17:51;77.78;;;8.20;;
11092;SDS011;5600;50.864;6.102;2022-07-21T06:20:51;91.97;;;9.40;;
11092;SDS011;5600;50.864;6.102;2022-07-21T06:23:53;93.60;;;9.35;;
11092;SDS011;5600;50.864;6.102;2022-07-21T06:26:53;67.68;;;9.40;;
11092;SDS011;5600;50.864;6.102;2022-07-21T06:29:55;82.65;;;9.05;;
11092;SDS011;5600;50.864;6.102;2022-07-21T06:32:59;96.93;;;9.70;;
11092;SDS011;5600;50.864;6.102;2022-07-21T06:36:00;54.17;;;8.60;;
11092;SDS011;5600;50.864;6.102;2022-07-21T06:39:01;81.32;;;8.95;;
11092;SDS011;5600;50.864;6.102;2022-07-21T06:42:02;120.30;;;10.25;;
11092;SDS011;5600;50.864;6.102;2022-07-21T06:45:06;83.80;;;9.13;;
11092;SDS011;5600;50.864;6.102;2022-07-21T06:48:08;79.80;;;9.30;;
11092;SDS011;5600;50.864;6.102;2022-07-21T06:51:09;79.80;;;9.35;;
11092;SDS011;5600;50.864;6.102;2022-07-21T06:54:10;92.28;;;9.25;;
11092;SDS011;5600;50.864;6.102;2022-07-21T06:57:11;89.75;;;9.80;;
11092;SDS011;5600;50.864;6.102;2022-07-21T07:00:13;85.40;;;9.95;;
11092;SDS011;5600;50.864;6.102;2022-07-21T07:03:15;83.03;;;9.38;;
11092;SDS011;5600;50.864;6.102;2022-07-21T07:06:16;88.47;;;10.30;;
11092;SDS011;5600;50.864;6.102;2022-07-21T07:09:17;95.38;;;10.10;;
11092;SDS011;5600;50.864;6.102;2022-07-21T07:12:18;93.20;;;10.60;;
11092;SDS011;5600;50.864;6.102;2022-07-21T07:15:19;73.50;;;9.73;;
11092;SDS011;5600;50.864;6.102;2022-07-21T07:18:20;71.80;;;9.43;;
11092;SDS011;5600;50.864;6.102;2022-07-21T07:21:23;104.28;;;10.68;;
11092;SDS011;5600;50.864;6.102;2022-07-21T07:24:25;78.85;;;9.27;;
11092;SDS011;5600;50.864;6.102;2022-07-21T07:27:26;76.50;;;10.20;;
11092;SDS011;5600;50.864;6.102;2022-07-21T07:30:27;75.75;;;9.48;;
11092;SDS011;5600;50.864;6.102;2022-07-21T07:33:28;82.90;;;10.13;;
11092;SDS011;5600;50.864;6.102;2022-07-21T07:36:30;57.38;;;9.13;;
11092;SDS011;5600;50.864;6.102;2022-07-21T07:39:31;109.93;;;10.82;;
11092;SDS011;5600;50.864;6.102;2022-07-21T07:42:33;102.35;;;10.40;;
11092;SDS011;5600;50.864;6.102;2022-07-21T07:45:37;68.82;;;10.10;;
11092;SDS011;5600;50.864;6.102;2022-07-21T07:48:39;69.00;;;9.27;;
11092;SDS011;5600;50.864;6.102;2022-07-21T07:51:43;72.72;;;9.57;;
11092;SDS011;5600;50.864;6.102;2022-07-21T07:54:44;83.47;;;10.15;;
11092;SDS011;5600;50.864;6.102;2022-07-21T07:57:45;39.80;;;8.65;;
11092;SDS011;5600;50.864;6.102;2022-07-21T08:00:46;77.00;;;9.75;;
11092;SDS011;5600;50.864;6.102;2022-07-21T08:03:48;90.97;;;11.02;;
11092;SDS011;5600;50.864;6.102;2022-07-21T08:06:49;77.85;;;9.88;;
11092;SDS011;5600;50.864;6.102;2022-07-21T08:09:50;80.82;;;10.13;;
11092;SDS011;5600;50.864;6.102;2022-07-21T08:12:51;84.88;;;10.55;;
11092;SDS011;5600;50.864;6.102;2022-07-21T08:15:52;87.80;;;10.23;;
11092;SDS011;5600;50.864;6.102;2022-07-21T08:18:53;96.43;;;10.93;;
11092;SDS011;5600;50.864;6.102;2022-07-21T08:21:54;47.80;;;8.82;;
11092;SDS011;5600;50.864;6.102;2022-07-21T08:24:55;65.15;;;9.05;;
11092;SDS011;5600;50.864;6.102;2022-07-21T08:27:56;41.85;;;8.20;;
11092;SDS011;5600;50.864;6.102;2022-07-21T08:30:57;54.15;;;8.32;;
11092;SDS011;5600;50.864;6.102;2022-07-21T08:33:58;57.22;;;8.00;;
11092;SDS011;5600;50.864;6.102;2022-07-21T08:36:59;53.08;;;7.40;;
11092;SDS011;5600;50.864;6.102;2022-07-21T08:40:00;50.35;;;7.43;;
11092;SDS011;5600;50.864;6.102;2022-07-21T08:43:02;67.63;;;8.07;;
11092;SDS011;5600;50.864;6.102;2022-07-21T08:46:03;80.25;;;8.10;;
11092;SDS011;5600;50.864;6.102;2022-07-21T08:49:05;72.10;;;7.75;;
11092;SDS011;5600;50.864;6.102;2022-07-21T08:52:06;69.43;;;7.78;;
11092;SDS011;5600;50.864;6.102;2022-07-21T08:55:07;81.57;;;8.15;;
11092;SDS011;5600;50.864;6.102;2022-07-21T08:58:09;51.33;;;7.60;;
11092;SDS011;5600;50.864;6.102;2022-07-21T09:01:11;48.75;;;7.18;;
11092;SDS011;5600;50.864;6.102;2022-07-21T09:04:45;70.90;;;8.75;;
11092;SDS011;5600;50.864;6.102;2022-07-21T09:07:50;23.58;;;6.97;;
11092;SDS011;5600;50.864;6.102;2022-07-21T09:10:51;64.93;;;9.20;;
11092;SDS011;5600;50.864;6.102;2022-07-21T09:14:08;45.08;;;7.68;;
11092;SDS011;5600;50.864;6.102;2022-07-21T09:17:10;47.70;;;7.68;;
11092;SDS011;5600;50.864;6.102;2022-07-21T09:20:22;50.03;;;8.00;;
11092;SDS011;5600;50.864;6.102;2022-07-21T09:23:23;52.10;;;8.23;;
11092;SDS011;5600;50.864;6.102;2022-07-21T09:26:24;64.35;;;9.13;;
11092;SDS011;5600;50.864;6.102;2022-07-21T09:29:25;55.08;;;8.93;;
11092;SDS011;5600;50.864;6.102;2022-07-21T09:32:27;73.97;;;10.43;;
11092;SDS011;5600;50.864;6.102;2022-07-21T09:35:29;65.20;;;10.23;;
11092;SDS011;5600;50.864;6.102;2022-07-21T09:38:31;61.25;;;9.40;;
11092;SDS011;5600;50.864;6.102;2022-07-21T09:41:32;85.35;;;10.63;;
11092;SDS011;5600;50.864;6.102;2022-07-21T09:44:34;65.28;;;10.68;;
11092;SDS011;5600;50.864;6.102;2022-07-21T09:47:36;25.45;;;9.38;;
11092;SDS011;5600;50.864;6.102;2022-07-21T09:50:40;46.95;;;9.68;;
11092;SDS011;5600;50.864;6.102;2022-07-21T09:53:50;49.72;;;10.65;;
11092;SDS011;5600;50.864;6.102;2022-07-21T09:56:51;67.53;;;11.68;;
11092;SDS011;5600;50.864;6.102;2022-07-21T09:59:55;59.50;;;12.05;;
11092;SDS011;5600;50.864;6.102;2022-07-21T10:02:56;74.88;;;12.43;;
11092;SDS011;5600;50.864;6.102;2022-07-21T10:05:58;56.97;;;11.68;;
11092;SDS011;5600;50.864;6.102;2022-07-21T10:08:59;52.15;;;11.45;;
11092;SDS011;5600;50.864;6.102;2022-07-21T10:12:01;73.60;;;12.45;;
11092;SDS011;5600;50.864;6.102;2022-07-21T10:15:02;65.85;;;11.90;;
11092;SDS011;5600;50.864;6.102;2022-07-21T10:18:03;68.00;;;12.15;;
11092;SDS011;5600;50.864;6.102;2022-07-21T10:21:11;48.80;;;11.20;;
11092;SDS011;5600;50.864;6.102;2022-07-21T10:24:14;50.65;;;10.93;;
11092;SDS011;5600;50.864;6.102;2022-07-21T10:27:15;65.60;;;11.85;;
11092;SDS011;5600;50.864;6.102;2022-07-21T10:30:17;65.20;;;11.90;;
11092;SDS011;5600;50.864;6.102;2022-07-21T10:36:48;61.30;;;11.35;;
11092;SDS011;5600;50.864;6.102;2022-07-21T10:39:49;74.60;;;11.85;;
11092;SDS011;5600;50.864;6.102;2022-07-21T10:46:01;80.68;;;12.32;;
11092;SDS011;5600;50.864;6.102;2022-07-21T10:49:02;72.22;;;11.82;;
11092;SDS011;5600;50.864;6.102;2022-07-21T10:52:05;72.13;;;12.07;;
11092;SDS011;5600;50.864;6.102;2022-07-21T10:55:30;88.07;;;12.23;;
11092;SDS011;5600;50.864;6.102;2022-07-21T10:58:32;83.05;;;12.75;;
11092;SDS011;5600;50.864;6.102;2022-07-21T11:01:34;56.78;;;11.25;;
11092;SDS011;5600;50.864;6.102;2022-07-21T11:05:01;84.35;;;12.15;;
11092;SDS011;5600;50.864;6.102;2022-07-21T11:08:16;80.63;;;12.32;;
11092;SDS011;5600;50.864;6.102;2022-07-21T11:11:25;71.43;;;12.13;;
11092;SDS011;5600;50.864;6.102;2022-07-21T11:17:39;92.90;;;12.43;;
11092;SDS011;5600;50.864;6.102;2022-07-21T11:20:41;83.47;;;12.68;;
11092;SDS011;5600;50.864;6.102;2022-07-21T11:23:46;108.68;;;13.88;;
11092;SDS011;5600;50.864;6.102;2022-07-21T11:26:58;112.32;;;14.35;;
11092;SDS011;5600;50.864;6.102;2022-07-21T11:30:00;79.47;;;12.80;;
11092;SDS011;5600;50.864;6.102;2022-07-21T11:33:01;95.18;;;13.68;;
11092;SDS011;5600;50.864;6.102;2022-07-21T11:36:03;104.03;;;13.65;;
11092;SDS011;5600;50.864;6.102;2022-07-21T11:39:11;76.60;;;12.05;;
11092;SDS011;5600;50.864;6.102;2022-07-21T11:42:13;115.80;;;14.57;;
11092;SDS011;5600;50.864;6.102;2022-07-21T11:45:15;87.03;;;13.00;;
11092;SDS011;5600;50.864;6.102;2022-07-21T11:48:29;67.13;;;12.40;;
11092;SDS011;5600;50.864;6.102;2022-07-21T11:51:31;79.10;;;13.88;;
11092;SDS011;5600;50.864;6.102;2022-07-21T11:54:45;82.03;;;14.45;;
11092;SDS011;5600;50.864;6.102;2022-07-21T11:57:48;92.80;;;14.40;;
11092;SDS011;5600;50.864;6.102;2022-07-21T12:01:02;91.65;;;15.45;;
11092;SDS011;5600;50.864;6.102;2022-07-21T12:04:04;101.40;;;15.82;;
11092;SDS011;5600;50.864;6.102;2022-07-21T12:07:06;98.10;;;17.17;;
11092;SDS011;5600;50.864;6.102;2022-07-21T12:10:09;74.82;;;16.73;;
11092;SDS011;5600;50.864;6.102;2022-07-21T12:13:15;85.90;;;18.02;;
11092;SDS011;5600;50.864;6.102;2022-07-21T12:16:16;89.97;;;18.25;;
11092;SDS011;5600;50.864;6.102;2022-07-21T12:19:17;92.25;;;18.42;;
11092;SDS011;5600;50.864;6.102;2022-07-21T12:22:31;103.20;;;18.48;;
11092;SDS011;5600;50.864;6.102;2022-07-21T12:25:36;95.78;;;14.30;;
11092;SDS011;5600;50.864;6.102;2022-07-21T12:28:48;84.45;;;8.75;;
11092;SDS011;5600;50.864;6.102;2022-07-21T12:31:52;43.33;;;6.90;;
11092;SDS011;5600;50.864;6.102;2022-07-21T12:34:53;48.47;;;7.00;;
11092;SDS011;5600;50.864;6.102;2022-07-21T12:40:56;70.80;;;7.93;;
11092;SDS011;5600;50.864;6.102;2022-07-21T12:43:57;105.70;;;9.75;;
11092;SDS011;5600;50.864;6.102;2022-07-21T12:47:15;80.35;;;9.85;;
11092;SDS011;5600;50.864;6.102;2022-07-21T12:50:16;89.50;;;10.30;;
11092;SDS011;5600;50.864;6.102;2022-07-21T12:53:17;95.90;;;10.98;;
11092;SDS011;5600;50.864;6.102;2022-07-21T12:56:20;86.72;;;11.32;;
11092;SDS011;5600;50.864;6.102;2022-07-21T12:59:21;78.15;;;11.60;;
11092;SDS011;5600;50.864;6.102;2022-07-21T13:02:22;49.13;;;10.32;;
11092;SDS011;5600;50.864;6.102;2022-07-21T13:05:24;79.72;;;13.75;;
11092;SDS011;5600;50.864;6.102;2022-07-21T13:08:25;67.25;;;11.35;;
11092;SDS011;5600;50.864;6.102;2022-07-21T13:11:27;63.63;;;12.25;;
11092;SDS011;5600;50.864;6.102;2022-07-21T13:14:27;53.63;;;13.63;;
11092;SDS011;5600;50.864;6.102;2022-07-21T13:17:28;96.35;;;14.13;;
11092;SDS011;5600;50.864;6.102;2022-07-21T13:20:29;68.68;;;12.82;;
11092;SDS011;5600;50.864;6.102;2022-07-21T13:23:30;66.75;;;12.70;;
11092;SDS011;5600;50.864;6.102;2022-07-21T13:26:31;74.47;;;12.15;;
11092;SDS011;5600;50.864;6.102;2022-07-21T13:29:32;102.85;;;13.52;;
11092;SDS011;5600;50.864;6.102;2022-07-21T13:32:34;51.50;;;11.07;;
11092;SDS011;5600;50.864;6.102;2022-07-21T13:35:35;72.88;;;12.05;;
11092;SDS011;5600;50.864;6.102;2022-07-21T13:38:36;49.30;;;10.60;;
11092;SDS011;5600;50.864;6.102;2022-07-21T13:41:37;83.18;;;12.02;;
11092;SDS011;5600;50.864;6.102;2022-07-21T13:44:38;66.00;;;10.68;;
11092;SDS011;5600;50.864;6.102;2022-07-21T13:47:39;58.50;;;11.43;;
11092;SDS011;5600;50.864;6.102;2022-07-21T13:50:40;79.53;;;13.98;;
11092;SDS011;5600;50.864;6.102;2022-07-21T13:53:42;56.55;;;11.93;;
11092;SDS011;5600;50.864;6.102;2022-07-21T13:56:44;47.03;;;10.65;;
11092;SDS011;5600;50.864;6.102;2022-07-21T13:59:45;63.08;;;12.25;;
11092;SDS011;5600;50.864;6.102;2022-07-21T14:02:46;91.22;;;11.77;;
11092;SDS011;5600;50.864;6.102;2022-07-21T14:05:48;74.75;;;10.65;;
11092;SDS011;5600;50.864;6.102;2022-07-21T14:08:49;91.45;;;12.23;;
11092;SDS011;5600;50.864;6.102;2022-07-21T14:11:49;48.53;;;10.52;;
11092;SDS011;5600;50.864;6.102;2022-07-21T14:14:50;64.25;;;11.90;;
11092;SDS011;5600;50.864;6.102;2022-07-21T14:17:52;39.92;;;11.05;;
11092;SDS011;5600;50.864;6.102;2022-07-21T14:20:53;59.78;;;10.93;;
11092;SDS011;5600;50.864;6.102;2022-07-21T14:23:54;90.78;;;13.20;;
11092;SDS011;5600;50.864;6.102;2022-07-21T14:27:15;55.92;;;10.32;;
11092;SDS011;5600;50.864;6.102;2022-07-21T14:30:17;68.63;;;11.00;;
11092;SDS011;5600;50.864;6.102;2022-07-21T14:33:18;65.88;;;10.07;;
11092;SDS011;5600;50.864;6.102;2022-07-21T14:36:19;68.80;;;9.80;;
11092;SDS011;5600;50.864;6.102;2022-07-21T14:39:20;51.90;;;8.80;;
11092;SDS011;5600;50.864;6.102;2022-07-21T14:42:21;41.55;;;8.57;;
11092;SDS011;5600;50.864;6.102;2022-07-21T14:45:26;64.50;;;8.90;;
11092;SDS011;5600;50.864;6.102;2022-07-21T14:48:26;48.13;;;6.90;;
11092;SDS011;5600;50.864;6.102;2022-07-21T14:51:27;53.22;;;7.97;;
11092;SDS011;5600;50.864;6.102;2022-07-21T14:54:29;60.35;;;8.60;;
11092;SDS011;5600;50.864;6.102;2022-07-21T14:57:29;78.68;;;8.95;;
11092;SDS011;5600;50.864;6.102;2022-07-21T15:00:30;82.65;;;8.50;;
11092;SDS011;5600;50.864;6.102;2022-07-21T15:03:31;34.30;;;6.00;;
11092;SDS011;5600;50.864;6.102;2022-07-21T15:06:33;47.58;;;6.18;;
11092;SDS011;5600;50.864;6.102;2022-07-21T15:09:33;60.97;;;6.35;;
11092;SDS011;5600;50.864;6.102;2022-07-21T15:12:35;55.28;;;5.90;;
11092;SDS011;5600;50.864;6.102;2022-07-21T15:15:36;51.28;;;6.38;;
11092;SDS011;5600;50.864;6.102;2022-07-21T15:18:37;70.43;;;6.43;;
11092;SDS011;5600;50.864;6.102;2022-07-21T15:21:39;55.55;;;6.03;;
11092;SDS011;5600;50.864;6.102;2022-07-21T15:24:41;46.03;;;5.50;;
11092;SDS011;5600;50.864;6.102;2022-07-21T15:27:42;68.53;;;5.93;;
11092;SDS011;5600;50.864;6.102;2022-07-21T15:30:43;66.32;;;5.53;;
11092;SDS011;5600;50.864;6.102;2022-07-21T15:33:44;65.25;;;6.10;;
11092;SDS011;5600;50.864;6.102;2022-07-21T15:36:46;91.40;;;8.45;;
11092;SDS011;5600;50.864;6.102;2022-07-21T15:39:46;60.92;;;7.38;;
11092;SDS011;5600;50.864;6.102;2022-07-21T15:42:48;87.03;;;8.50;;
11092;SDS011;5600;50.864;6.102;2022-07-21T15:45:48;58.15;;;7.93;;
11092;SDS011;5600;50.864;6.102;2022-07-21T15:48:50;73.07;;;8.60;;
11092;SDS011;5600;50.864;6.102;2022-07-21T15:51:51;96.72;;;9.10;;
11092;SDS011;5600;50.864;6.102;2022-07-21T15:54:52;82.13;;;9.43;;
11092;SDS011;5600;50.864;6.102;2022-07-21T15:57:53;67.88;;;8.82;;
11092;SDS011;5600;50.864;6.102;2022-07-21T16:00:54;69.20;;;8.82;;
11092;SDS011;5600;50.864;6.102;2022-07-21T16:03:55;63.17;;;9.15;;
11092;SDS011;5600;50.864;6.102;2022-07-21T16:06:56;66.15;;;8.75;;
11092;SDS011;5600;50.864;6.102;2022-07-21T16:09:58;70.00;;;9.27;;
11092;SDS011;5600;50.864;6.102;2022-07-21T16:12:59;139.38;;;11.82;;
11092;SDS011;5600;50.864;6.102;2022-07-21T16:16:00;70.07;;;9.65;;
11092;SDS011;5600;50.864;6.102;2022-07-21T16:19:02;108.32;;;11.20;;
11092;SDS011;5600;50.864;6.102;2022-07-21T16:22:03;134.55;;;13.43;;
11092;SDS011;5600;50.864;6.102;2022-07-21T16:25:04;87.47;;;10.68;;
11092;SDS011;5600;50.864;6.102;2022-07-21T16:28:05;127.70;;;12.05;;
11092;SDS011;5600;50.864;6.102;2022-07-21T16:31:06;107.03;;;12.18;;
11092;SDS011;5600;50.864;6.102;2022-07-21T16:34:07;87.22;;;10.25;;
11092;SDS011;5600;50.864;6.102;2022-07-21T16:37:09;100.63;;;11.48;;
11092;SDS011;5600;50.864;6.102;2022-07-21T16:40:10;100.53;;;11.90;;
11092;SDS011;5600;50.864;6.102;2022-07-21T16:43:12;107.18;;;11.80;;
11092;SDS011;5600;50.864;6.102;2022-07-21T16:46:13;89.95;;;11.18;;
11092;SDS011;5600;50.864;6.102;2022-07-21T16:49:14;94.65;;;12.10;;
11092;SDS011;5600;50.864;6.102;2022-07-21T16:52:15;99.97;;;11.43;;
11092;SDS011;5600;50.864;6.102;2022-07-21T16:55:16;84.65;;;11.35;;
11092;SDS011;5600;50.864;6.102;2022-07-21T16:58:17;95.38;;;12.27;;
11092;SDS011;5600;50.864;6.102;2022-07-21T17:01:18;97.25;;;12.52;;
11092;SDS011;5600;50.864;6.102;2022-07-21T17:04:19;73.47;;;11.05;;
11092;SDS011;5600;50.864;6.102;2022-07-21T17:07:20;84.10;;;11.18;;
11092;SDS011;5600;50.864;6.102;2022-07-21T17:10:21;90.78;;;11.20;;
11092;SDS011;5600;50.864;6.102;2022-07-21T17:13:23;89.20;;;11.27;;
11092;SDS011;5600;50.864;6.102;2022-07-21T17:16:24;80.97;;;11.35;;
11092;SDS011;5600;50.864;6.102;2022-07-21T17:19:25;66.60;;;10.00;;
11092;SDS011;5600;50.864;6.102;2022-07-21T17:22:26;107.00;;;11.77;;
11092;SDS011;5600;50.864;6.102;2022-07-21T17:25:27;92.85;;;10.55;;
11092;SDS011;5600;50.864;6.102;2022-07-21T17:28:29;101.10;;;10.68;;
11092;SDS011;5600;50.864;6.102;2022-07-21T17:31:30;88.10;;;9.77;;
11092;SDS011;5600;50.864;6.102;2022-07-21T17:34:31;74.13;;;9.48;;
11092;SDS011;5600;50.864;6.102;2022-07-21T17:37:32;93.05;;;10.40;;
11092;SDS011;5600;50.864;6.102;2022-07-21T17:40:34;60.92;;;9.18;;
11092;SDS011;5600;50.864;6.102;2022-07-21T17:43:36;43.17;;;7.97;;
11092;SDS011;5600;50.864;6.102;2022-07-21T17:46:38;72.00;;;8.85;;
11092;SDS011;5600;50.864;6.102;2022-07-21T17:49:40;88.13;;;9.82;;
11092;SDS011;5600;50.864;6.102;2022-07-21T17:52:42;79.53;;;9.30;;
11092;SDS011;5600;50.864;6.102;2022-07-21T17:55:43;62.00;;;9.48;;
11092;SDS011;5600;50.864;6.102;2022-07-21T17:58:44;62.15;;;9.20;;
11092;SDS011;5600;50.864;6.102;2022-07-21T18:01:45;69.55;;;9.77;;
11092;SDS011;5600;50.864;6.102;2022-07-21T18:04:47;88.07;;;10.25;;
11092;SDS011;5600;50.864;6.102;2022-07-21T18:07:49;84.47;;;10.35;;
11092;SDS011;5600;50.864;6.102;2022-07-21T18:10:50;75.75;;;9.18;;
11092;SDS011;5600;50.864;6.102;2022-07-21T18:13:51;70.28;;;8.85;;
11092;SDS011;5600;50.864;6.102;2022-07-21T18:16:52;88.13;;;9.77;;
11092;SDS011;5600;50.864;6.102;2022-07-21T18:19:53;73.50;;;9.52;;
11092;SDS011;5600;50.864;6.102;2022-07-21T18:22:54;93.07;;;10.45;;